Time;durP1;ratioP1;P1;durP2;ratioP2;P2;SDS_P1;SDS_P2;PMS_P1;PMS_P2;Temp;Humidity;BMP_temperature;BMP_pressure;BME280_temperature;BME280_humidity;BME280_pressure;Samples;Min_cycle;Max_cycle;Signal;HPM_P1;HPM_P2
2022/08/31 00:06:16;;;;;;;5.90;2.30;;;18.00;99.90;;;;;;5032473;28;20690;-44
2022/08/31 00:08:41;;;;;;;7.60;2.53;;;18.00;99.90;;;;;;5015569;28;20169;-43
2022/08/31 00:11:12;;;;;;;4.73;2.50;;;17.80;99.90;;;;;;5033410;28;20572;-44
2022/08/31 00:13:39;;;;;;;4.70;2.50;;;17.50;99.90;;;;;;5033312;28;20251;-44
2022/08/31 00:16:05;;;;;;;4.03;2.47;;;17.30;99.90;;;;;;5033095;28;20207;-43
2022/08/31 00:18:30;;;;;;;4.27;2.33;;;17.10;99.90;;;;;;5034186;28;20189;-44
2022/08/31 00:20:56;;;;;;;4.17;2.43;;;17.00;99.90;;;;;;5033087;28;20673;-42
2022/08/31 00:23:22;;;;;;;7.27;2.60;;;17.00;99.90;;;;;;5015646;28;20705;-43
2022/08/31 00:25:48;;;;;;;7.70;2.70;;;16.90;99.90;;;;;;5033107;28;20271;-42
2022/08/31 00:28:15;;;;;;;10.57;2.90;;;16.90;99.90;;;;;;5032979;28;20239;-44
2022/08/31 00:30:42;;;;;;;5.03;2.73;;;16.90;99.90;;;;;;5032973;28;20223;-43
2022/08/31 00:33:08;;;;;;;3.43;2.87;;;16.90;99.90;;;;;;5033581;28;20177;-43
2022/08/31 00:35:35;;;;;;;4.37;2.47;;;16.90;99.90;;;;;;5032987;28;20182;-43
2022/08/31 00:38:05;;;;;;;6.73;2.53;;;16.90;99.90;;;;;;5032916;28;20181;-43
2022/08/31 00:40:31;;;;;;;6.87;2.97;;;16.90;99.90;;;;;;5032859;28;20192;-45
2022/08/31 00:42:59;;;;;;;5.23;2.90;;;16.90;99.90;;;;;;5033345;28;20180;-44
2022/08/31 00:45:24;;;;;;;6.03;3.10;;;16.90;99.90;;;;;;5033279;28;20192;-42
2022/08/31 00:47:50;;;;;;;6.57;3.07;;;16.80;99.90;;;;;;5033350;28;20204;-44
2022/08/31 00:50:18;;;;;;;7.07;3.53;;;16.80;99.90;;;;;;5034068;28;20219;-44
2022/08/31 00:52:51;;;;;;;5.90;2.90;;;16.70;99.90;;;;;;5034212;28;20201;-44
2022/08/31 00:55:36;;;;;;;4.63;3.03;;;16.70;99.90;;;;;;5034945;28;20536;-43
2022/08/31 00:58:06;;;;;;;7.73;3.10;;;16.70;99.90;;;;;;5035037;28;20520;-42
2022/08/31 01:00:32;;;;;;;7.33;3.10;;;16.70;99.90;;;;;;5034609;28;20189;-44
2022/08/31 01:03:01;;;;;;;9.77;3.10;;;16.70;99.90;;;;;;5034064;28;20273;-44
2022/08/31 01:05:27;;;;;;;8.60;3.90;;;16.70;99.90;;;;;;5015300;28;20543;-44
2022/08/31 01:07:54;;;;;;;8.40;2.97;;;16.60;99.90;;;;;;5015053;28;20212;-43
2022/08/31 01:10:23;;;;;;;6.67;3.10;;;16.60;99.90;;;;;;5033068;28;20264;-44
2022/08/31 01:12:51;;;;;;;8.50;3.40;;;16.60;99.90;;;;;;5032743;28;20203;-45
2022/08/31 01:15:17;;;;;;;8.10;3.70;;;16.50;99.90;;;;;;5032978;28;20193;-43
2022/08/31 01:17:45;;;;;;;5.83;2.80;;;16.50;99.90;;;;;;5033574;28;20231;-43
2022/08/31 01:20:29;;;;;;;6.93;3.00;;;16.50;99.90;;;;;;5036447;28;20180;-43
2022/08/31 01:23:12;;;;;;;3.20;2.90;;;16.50;99.90;;;;;;5036087;28;20204;-45
2022/08/31 01:25:41;;;;;;;5.07;2.43;;;16.80;99.90;;;;;;5036383;28;20172;-44
2022/08/31 01:28:08;;;;;;;3.17;2.33;;;16.40;99.90;;;;;;5035987;28;20207;-43
2022/08/31 01:30:34;;;;;;;4.70;2.60;;;16.40;99.90;;;;;;5035866;28;20182;-44
2022/08/31 01:33:00;;;;;;;4.23;2.53;;;16.50;99.90;;;;;;5035741;28;20222;-43
2022/08/31 01:35:27;;;;;;;4.43;2.73;;;16.50;99.90;;;;;;5036160;28;20657;-44
2022/08/31 01:37:54;;;;;;;4.70;3.13;;;16.40;99.90;;;;;;5035930;28;20177;-43
2022/08/31 01:40:19;;;;;;;4.73;3.30;;;16.40;99.90;;;;;;5036035;28;20185;-44
2022/08/31 01:42:45;;;;;;;6.07;3.00;;;16.40;99.90;;;;;;5035728;28;20200;-43
2022/08/31 01:45:11;;;;;;;4.33;2.70;;;16.40;99.90;;;;;;5035762;28;20231;-43
2022/08/31 01:47:38;;;;;;;4.83;2.33;;;16.40;99.90;;;;;;5035840;28;20539;-43
2022/08/31 01:50:06;;;;;;;5.27;2.63;;;16.40;99.90;;;;;;5035644;28;20201;-43
2022/08/31 01:52:33;;;;;;;4.50;2.87;;;16.40;99.90;;;;;;5035664;28;20204;-43
2022/08/31 01:54:59;;;;;;;3.60;2.50;;;16.40;99.90;;;;;;5035869;28;20173;-43
2022/08/31 01:57:25;;;;;;;2.97;2.30;;;16.40;99.90;;;;;;5035375;28;20185;-45
2022/08/31 01:59:51;;;;;;;4.57;2.50;;;16.40;99.90;;;;;;5035241;28;20185;-42
2022/08/31 02:02:17;;;;;;;4.67;2.37;;;16.40;99.90;;;;;;5035500;28;20225;-43
2022/08/31 02:04:42;;;;;;;3.33;2.70;;;16.40;99.90;;;;;;5017560;28;20600;-44
2022/08/31 02:07:08;;;;;;;3.77;2.50;;;16.40;99.90;;;;;;5035228;28;20236;-44
2022/08/31 02:09:34;;;;;;;4.13;2.73;;;16.40;99.90;;;;;;5035218;28;20188;-44
2022/08/31 02:11:59;;;;;;;5.17;2.70;;;16.40;99.90;;;;;;5035479;28;20201;-44
2022/08/31 02:14:25;;;;;;;4.53;2.60;;;16.40;99.90;;;;;;5035420;28;20264;-43
2022/08/31 02:16:51;;;;;;;4.20;2.63;;;16.40;99.90;;;;;;5034995;28;20196;-43
2022/08/31 02:19:16;;;;;;;4.63;3.13;;;16.40;99.90;;;;;;5017345;28;20642;-45
2022/08/31 02:21:42;;;;;;;4.37;2.90;;;16.40;99.90;;;;;;5035141;28;20300;-44
2022/08/31 02:24:11;;;;;;;4.93;3.00;;;16.40;99.90;;;;;;5035148;28;20204;-44
2022/08/31 02:26:37;;;;;;;5.63;3.00;;;16.40;99.90;;;;;;5034764;28;20240;-44
2022/08/31 02:29:02;;;;;;;4.57;2.97;;;16.30;99.90;;;;;;5034303;28;20204;-44
2022/08/31 02:31:28;;;;;;;4.30;3.07;;;16.20;99.90;;;;;;5034803;28;20533;-44
2022/08/31 02:33:54;;;;;;;5.23;2.93;;;16.20;99.90;;;;;;5034994;28;20177;-43
2022/08/31 02:36:19;;;;;;;7.00;3.30;;;16.10;99.90;;;;;;5035502;28;20173;-44
2022/08/31 02:38:45;;;;;;;4.90;2.83;;;16.00;99.90;;;;;;5034638;28;20268;-43
2022/08/31 02:41:10;;;;;;;4.37;2.87;;;16.10;99.90;;;;;;5034822;28;20283;-44
2022/08/31 02:43:36;;;;;;;6.70;3.00;;;16.00;99.90;;;;;;5034801;28;20260;-43
2022/08/31 02:46:02;;;;;;;4.27;2.77;;;16.00;99.90;;;;;;5034815;28;20176;-42
2022/08/31 02:48:27;;;;;;;6.23;3.13;;;15.90;99.90;;;;;;5034615;28;20212;-43
2022/08/31 02:50:53;;;;;;;4.70;3.07;;;15.90;99.90;;;;;;5034587;28;20206;-44
2022/08/31 02:53:22;;;;;;;3.47;2.50;;;15.90;99.90;;;;;;5034453;28;20533;-43
2022/08/31 02:55:48;;;;;;;4.10;2.63;;;15.90;99.90;;;;;;5034289;28;20177;-44
2022/08/31 02:58:15;;;;;;;3.80;3.03;;;15.90;99.90;;;;;;5034537;28;20659;-44
2022/08/31 03:00:46;;;;;;;6.23;3.00;;;15.90;99.90;;;;;;5034117;28;20181;-43
2022/08/31 03:03:12;;;;;;;5.23;3.10;;;15.90;99.90;;;;;;5034244;28;20161;-43
2022/08/31 03:05:38;;;;;;;3.40;3.00;;;15.90;99.90;;;;;;5034426;28;20260;-44
2022/08/31 03:08:04;;;;;;;4.03;3.37;;;15.80;99.90;;;;;;5033965;28;20295;-44
2022/08/31 03:10:29;;;;;;;6.07;3.20;;;15.80;99.90;;;;;;5034287;28;20559;-43
2022/08/31 03:12:55;;;;;;;5.47;3.30;;;15.90;99.90;;;;;;5034099;28;20192;-42
2022/08/31 03:15:22;;;;;;;6.33;3.30;;;15.90;99.90;;;;;;5033799;28;20263;-43
2022/08/31 03:17:48;;;;;;;6.17;3.60;;;15.90;99.90;;;;;;5034121;28;20169;-43
2022/08/31 03:20:16;;;;;;;5.10;3.00;;;15.90;99.90;;;;;;5033810;28;20189;-43
2022/08/31 03:22:42;;;;;;;5.73;3.20;;;15.90;99.90;;;;;;5034025;28;20209;-43
2022/08/31 03:25:08;;;;;;;6.53;4.13;;;15.90;99.90;;;;;;5033800;28;20185;-44
2022/08/31 03:27:36;;;;;;;7.07;4.20;;;15.90;99.90;;;;;;5033853;28;20255;-43
2022/08/31 03:30:04;;;;;;;6.77;4.27;;;15.90;99.90;;;;;;5033860;28;20185;-42
2022/08/31 03:32:30;;;;;;;7.37;4.80;;;15.90;99.90;;;;;;5033567;28;20199;-43
2022/08/31 03:34:58;;;;;;;6.13;4.10;;;15.90;99.90;;;;;;5033505;28;20185;-42
2022/08/31 03:37:24;;;;;;;8.03;4.17;;;15.90;99.90;;;;;;5033589;28;20174;-43
2022/08/31 03:39:50;;;;;;;8.00;4.00;;;15.90;99.90;;;;;;5033906;28;20187;-43
2022/08/31 03:42:16;;;;;;;5.60;3.90;;;15.90;99.90;;;;;;5033190;28;20196;-44
2022/08/31 03:44:42;;;;;;;10.13;4.00;;;15.90;99.90;;;;;;5033461;28;20185;-44
2022/08/31 03:47:08;;;;;;;8.23;3.60;;;15.90;99.90;;;;;;5033712;28;20246;-44
2022/08/31 03:49:34;;;;;;;10.33;3.90;;;16.00;99.90;;;;;;5033640;28;20176;-43
2022/08/31 03:52:01;;;;;;;5.33;3.87;;;16.00;99.90;;;;;;5033860;28;20284;-44
2022/08/31 03:54:26;;;;;;;7.37;4.03;;;15.90;99.90;;;;;;5033577;28;20229;-43
2022/08/31 03:56:52;;;;;;;8.37;3.97;;;16.00;99.90;;;;;;5033393;28;20279;-43
2022/08/31 03:59:17;;;;;;;9.27;4.13;;;15.90;99.90;;;;;;5034130;28;20170;-42
2022/08/31 04:01:43;;;;;;;7.57;4.37;;;16.00;99.90;;;;;;5033184;28;20205;-43
2022/08/31 04:04:12;;;;;;;9.50;4.60;;;16.00;99.90;;;;;;5033475;28;20191;-44
2022/08/31 04:06:40;;;;;;;7.30;4.37;;;15.90;99.90;;;;;;5033131;28;20201;-44
2022/08/31 04:09:06;;;;;;;8.10;4.13;;;15.90;99.90;;;;;;5033220;28;20248;-42
2022/08/31 04:11:31;;;;;;;7.47;4.37;;;15.90;99.90;;;;;;5033385;28;20658;-43
2022/08/31 04:13:57;;;;;;;7.23;4.57;;;15.90;99.90;;;;;;5033135;28;20232;-42
2022/08/31 04:16:24;;;;;;;9.77;4.33;;;15.80;99.90;;;;;;5033078;28;20193;-43
2022/08/31 04:18:49;;;;;;;9.13;4.93;;;15.80;99.90;;;;;;5033131;28;20193;-42
2022/08/31 04:21:19;;;;;;;6.53;4.13;;;15.90;99.90;;;;;;5033503;28;20204;-43
2022/08/31 04:23:45;;;;;;;6.83;4.67;;;15.80;99.90;;;;;;5033092;28;20175;-43
2022/08/31 04:26:23;;;;;;;6.83;4.77;;;15.80;99.90;;;;;;5033321;28;20560;-43
2022/08/31 04:28:50;;;;;;;7.40;4.20;;;15.80;99.90;;;;;;5033071;28;20184;-45
2022/08/31 04:31:16;;;;;;;5.87;4.27;;;15.80;99.90;;;;;;5032904;28;20193;-42
2022/08/31 04:33:42;;;;;;;7.90;4.20;;;15.80;99.90;;;;;;5033275;28;20177;-43
2022/08/31 04:36:16;;;;;;;7.93;4.27;;;15.80;99.90;;;;;;5033953;28;20207;-44
2022/08/31 04:38:44;;;;;;;5.13;3.90;;;15.80;99.90;;;;;;5032942;28;20165;-44
2022/08/31 04:41:11;;;;;;;6.00;3.83;;;15.80;99.90;;;;;;5033187;28;20562;-42
2022/08/31 04:43:38;;;;;;;7.23;4.07;;;15.80;99.90;;;;;;5033111;28;20177;-42
2022/08/31 04:46:06;;;;;;;6.13;3.77;;;15.80;99.90;;;;;;5033205;28;20221;-42
2022/08/31 04:48:32;;;;;;;5.73;3.70;;;15.80;99.90;;;;;;5033432;28;20201;-44
2022/08/31 04:51:29;;;;;;;4.13;3.47;;;15.80;99.90;;;;;;5032880;28;20272;-41
2022/08/31 04:53:56;;;;;;;7.70;4.13;;;15.70;99.90;;;;;;5016364;28;20220;-43
2022/08/31 04:56:28;;;;;;;7.50;4.27;;;15.70;99.90;;;;;;5036940;28;20267;-43
2022/08/31 04:58:58;;;;;;;4.70;3.83;;;15.70;99.90;;;;;;5036617;28;20177;-40
2022/08/31 05:01:26;;;;;;;8.63;4.07;;;15.80;99.90;;;;;;5036635;28;20204;-38
2022/08/31 05:03:52;;;;;;;7.73;4.30;;;15.80;99.90;;;;;;5036800;28;20180;-40
2022/08/31 05:06:23;;;;;;;7.17;3.97;;;15.80;99.90;;;;;;5018781;28;20226;-38
2022/08/31 05:09:14;;;;;;;4.60;4.20;;;15.80;99.90;;;;;;5036435;28;20664;-38
2022/08/31 05:11:40;;;;;;;5.83;3.57;;;15.70;99.90;;;;;;5036603;28;20219;-40
2022/08/31 05:14:07;;;;;;;8.80;4.03;;;15.80;99.90;;;;;;5018520;28;20181;-39
2022/08/31 05:16:36;;;;;;;8.37;4.50;;;15.80;99.90;;;;;;5036228;28;20695;-41
2022/08/31 05:19:02;;;;;;;6.87;3.77;;;15.80;99.90;;;;;;5036579;28;20227;-39
2022/08/31 05:21:40;;;;;;;6.20;3.53;;;15.70;99.90;;;;;;5036422;28;20221;-37
2022/08/31 05:24:12;;;;;;;6.90;3.77;;;15.70;99.90;;;;;;5036233;28;20165;-41
2022/08/31 05:26:41;;;;;;;7.17;4.57;;;15.80;99.90;;;;;;5018539;28;20201;-40
2022/08/31 05:29:08;;;;;;;8.03;4.50;;;15.80;99.90;;;;;;5036541;28;20172;-40
2022/08/31 05:31:36;;;;;;;9.47;4.40;;;15.80;99.90;;;;;;5036082;28;20204;-40
2022/08/31 05:34:03;;;;;;;6.10;4.27;;;15.80;99.90;;;;;;5036375;28;20181;-40
2022/08/31 05:36:29;;;;;;;6.10;4.27;;;15.80;99.90;;;;;;5036075;28;20672;-40
2022/08/31 05:38:54;;;;;;;6.20;3.90;;;15.80;99.90;;;;;;5036275;28;20267;-39
2022/08/31 05:41:22;;;;;;;7.80;4.20;;;15.80;99.90;;;;;;5036442;28;20201;-40
2022/08/31 05:43:47;;;;;;;5.27;4.17;;;15.80;99.90;;;;;;5037342;28;20244;-40
2022/08/31 05:46:14;;;;;;;6.87;3.67;;;15.80;99.90;;;;;;5037313;28;20204;-39
2022/08/31 05:48:40;;;;;;;8.23;4.30;;;15.70;99.90;;;;;;5037378;28;20321;-40
2022/08/31 05:51:10;;;;;;;9.13;4.10;;;15.70;99.90;;;;;;5037382;28;20196;-40
2022/08/31 05:53:35;;;;;;;4.53;3.73;;;15.80;99.90;;;;;;5036195;28;20173;-40
2022/08/31 05:56:11;;;;;;;5.43;3.83;;;15.70;99.90;;;;;;5035695;28;20177;-39
2022/08/31 05:58:39;;;;;;;6.47;4.07;;;15.80;99.90;;;;;;5036299;28;20165;-39
2022/08/31 06:01:13;;;;;;;4.40;3.40;;;15.80;99.90;;;;;;5035495;28;20200;-40
2022/08/31 06:03:39;;;;;;;5.50;4.00;;;15.80;99.90;;;;;;5036073;28;20172;-40
2022/08/31 06:06:07;;;;;;;4.63;3.63;;;15.80;99.90;;;;;;5036344;28;20181;-38
2022/08/31 06:08:34;;;;;;;4.77;3.83;;;15.80;99.90;;;;;;5035596;28;20211;-40
2022/08/31 06:11:00;;;;;;;8.47;3.50;;;15.80;99.90;;;;;;5036039;28;20209;-40
2022/08/31 06:13:25;;;;;;;7.87;3.47;;;15.90;99.90;;;;;;5035226;28;20243;-39
2022/08/31 06:15:51;;;;;;;5.63;3.40;;;15.90;99.90;;;;;;5035287;28;20189;-40
2022/08/31 06:18:19;;;;;;;5.83;3.33;;;16.00;99.90;;;;;;5035422;28;20173;-40
2022/08/31 06:20:45;;;;;;;4.50;3.10;;;16.00;99.90;;;;;;5035291;28;20231;-41
2022/08/31 06:23:11;;;;;;;6.67;3.20;;;16.00;99.90;;;;;;5035534;28;20633;-39
2022/08/31 06:25:36;;;;;;;6.40;3.00;;;16.10;99.90;;;;;;5035091;28;20597;-41
2022/08/31 06:28:06;;;;;;;4.90;2.83;;;16.10;99.90;;;;;;5035149;28;20201;-39
2022/08/31 06:30:36;;;;;;;4.07;3.10;;;16.20;99.90;;;;;;5035088;28;20196;-42
2022/08/31 06:33:01;;;;;;;5.83;2.93;;;16.30;99.90;;;;;;5036476;28;20185;-40
2022/08/31 06:35:28;;;;;;;4.10;2.70;;;16.30;99.90;;;;;;5035210;28;20192;-40
2022/08/31 06:37:55;;;;;;;4.63;2.73;;;16.40;99.90;;;;;;5035398;28;20204;-40
2022/08/31 06:40:23;;;;;;;4.30;3.03;;;16.40;99.90;;;;;;5035278;28;20552;-42
2022/08/31 06:42:48;;;;;;;5.07;3.30;;;16.60;99.90;;;;;;5034900;28;20211;-39
2022/08/31 06:45:14;;;;;;;4.43;2.37;;;16.60;99.90;;;;;;5034669;28;20177;-39
2022/08/31 06:47:39;;;;;;;4.00;2.60;;;16.70;99.90;;;;;;5034748;28;20208;-39
2022/08/31 06:50:06;;;;;;;6.73;2.87;;;16.70;99.90;;;;;;5034583;28;20539;-40
2022/08/31 06:52:32;;;;;;;6.23;2.90;;;16.70;99.90;;;;;;5034300;28;20205;-39
2022/08/31 06:54:57;;;;;;;4.40;3.10;;;16.80;99.90;;;;;;5034738;28;20177;-38
2022/08/31 06:57:23;;;;;;;5.23;2.63;;;16.80;99.90;;;;;;5034701;28;20177;-39
2022/08/31 06:59:52;;;;;;;6.60;2.73;;;16.90;99.90;;;;;;5034431;28;20181;-39
2022/08/31 07:02:18;;;;;;;5.27;2.57;;;16.90;99.90;;;;;;5034424;28;20246;-39
2022/08/31 07:04:44;;;;;;;3.60;2.57;;;17.00;99.90;;;;;;5034457;28;20188;-38
2022/08/31 07:07:10;;;;;;;5.83;2.60;;;17.10;99.90;;;;;;5034140;28;20286;-39
2022/08/31 07:09:36;;;;;;;8.93;2.77;;;17.10;99.90;;;;;;5034151;28;20633;-39
2022/08/31 07:12:03;;;;;;;6.27;2.67;;;17.20;99.90;;;;;;5034117;28;20696;-39
2022/08/31 07:14:29;;;;;;;5.30;2.73;;;17.30;99.90;;;;;;5034109;28;20291;-40
2022/08/31 07:16:56;;;;;;;8.77;2.97;;;17.30;99.90;;;;;;5033426;28;20204;-40
2022/08/31 07:19:23;;;;;;;3.33;2.47;;;17.40;99.90;;;;;;5034188;28;20216;-37
2022/08/31 07:21:57;;;;;;;4.63;2.97;;;17.50;99.90;;;;;;5033836;28;20209;-40
2022/08/31 07:24:27;;;;;;;8.27;2.77;;;17.50;99.90;;;;;;5034172;28;20172;-40
2022/08/31 07:27:15;;;;;;;4.60;2.90;;;17.60;99.90;;;;;;5034364;28;20195;-41
2022/08/31 07:29:40;;;;;;;8.00;2.93;;;17.80;99.90;;;;;;5034427;28;20164;-40
2022/08/31 07:32:11;;;;;;;3.43;2.80;;;17.90;99.90;;;;;;5033875;28;20595;-39
2022/08/31 07:34:37;;;;;;;3.67;2.60;;;18.00;99.90;;;;;;5034101;28;20617;-40
2022/08/31 07:42:37;;;;;;;8.70;3.50;;;18.30;99.90;;;;;;5033645;28;20215;-37
2022/08/31 07:45:07;;;;;;;16.83;4.17;;;18.30;99.90;;;;;;5033740;28;20277;-37
2022/08/31 07:47:33;;;;;;;4.93;3.50;;;18.30;99.90;;;;;;5033389;28;20637;-41
2022/08/31 07:49:59;;;;;;;6.37;3.57;;;18.30;99.90;;;;;;5033785;28;20218;-41
2022/08/31 07:52:30;;;;;;;6.00;3.40;;;18.30;99.90;;;;;;5033600;28;20291;-39
2022/08/31 07:55:06;;;;;;;7.43;3.83;;;18.20;99.90;;;;;;5033699;28;20160;-40
2022/08/31 07:57:42;;;;;;;7.50;3.93;;;18.30;99.90;;;;;;5015640;28;20204;-38
2022/08/31 08:00:13;;;;;;;8.47;4.20;;;18.30;99.90;;;;;;5033302;28;20169;-40
2022/08/31 08:02:40;;;;;;;8.67;4.37;;;18.30;99.90;;;;;;5015604;28;20208;-40
2022/08/31 08:05:19;;;;;;;5.67;3.93;;;18.40;99.90;;;;;;5033245;28;20192;-40
2022/08/31 08:07:47;;;;;;;3.97;3.37;;;18.40;99.90;;;;;;5033268;28;20563;-40
2022/08/31 08:10:13;;;;;;;6.27;3.60;;;18.50;99.90;;;;;;5033229;28;20641;-40
2022/08/31 08:12:41;;;;;;;7.70;4.30;;;18.50;99.90;;;;;;5033073;28;20201;-41
2022/08/31 08:15:08;;;;;;;8.13;4.20;;;18.50;99.90;;;;;;5033022;28;20711;-45
2022/08/31 08:17:34;;;;;;;7.87;3.73;;;18.50;99.90;;;;;;5033387;28;20204;-43
2022/08/31 08:19:59;;;;;;;6.80;4.40;;;18.60;99.90;;;;;;5033326;28;20654;-45
2022/08/31 08:22:25;;;;;;;6.93;4.50;;;18.60;99.90;;;;;;5033265;28;20243;-44
2022/08/31 08:24:51;;;;;;;4.57;3.93;;;18.60;99.90;;;;;;5033150;28;20180;-44
2022/08/31 08:27:17;;;;;;;11.20;4.47;;;18.70;99.90;;;;;;5033409;28;20213;-45
2022/08/31 08:29:43;;;;;;;8.60;4.40;;;18.70;99.90;;;;;;5037098;28;20211;-45
2022/08/31 08:32:09;;;;;;;8.50;5.23;;;18.80;99.90;;;;;;5037277;28;20789;-44
2022/08/31 08:34:42;;;;;;;5.90;4.20;;;18.70;99.90;;;;;;5037286;28;20580;-45
2022/08/31 08:37:08;;;;;;;5.13;3.63;;;18.80;99.90;;;;;;5037304;28;20161;-43
2022/08/31 08:39:34;;;;;;;11.30;3.60;;;18.80;99.90;;;;;;5036857;28;20189;-43
2022/08/31 08:42:01;;;;;;;9.77;4.03;;;18.80;99.90;;;;;;5036925;28;20560;-45
2022/08/31 08:44:29;;;;;;;12.43;4.03;;;18.80;99.90;;;;;;5036817;28;20187;-44
2022/08/31 08:46:57;;;;;;;6.70;4.27;;;18.80;99.90;;;;;;5036703;28;20205;-44
2022/08/31 08:49:39;;;;;;;6.07;3.90;;;18.90;99.90;;;;;;5036715;28;20173;-44
2022/08/31 08:52:13;;;;;;;9.37;4.40;;;18.90;99.90;;;;;;5036899;28;20223;-46
2022/08/31 08:54:45;;;;;;;6.93;4.37;;;18.90;99.90;;;;;;5037285;28;20169;-44
2022/08/31 08:57:23;;;;;;;6.30;4.17;;;18.90;99.90;;;;;;5036559;28;20165;-44
2022/08/31 08:59:52;;;;;;;6.97;4.23;;;19.00;99.90;;;;;;5036804;28;20195;-44
2022/08/31 09:02:24;;;;;;;5.23;3.97;;;19.00;99.90;;;;;;5036395;28;20201;-43
2022/08/31 09:04:49;;;;;;;7.20;4.17;;;19.00;99.90;;;;;;5036797;28;20176;-44
2022/08/31 09:07:36;;;;;;;6.33;3.97;;;19.00;99.90;;;;;;5036354;28;20213;-44
2022/08/31 09:10:19;;;;;;;7.37;3.97;;;19.10;99.90;;;;;;5036673;28;20173;-45
2022/08/31 09:13:10;;;;;;;6.90;4.13;;;19.10;99.90;;;;;;5036316;28;20203;-44
2022/08/31 09:16:03;;;;;;;6.83;3.60;;;19.10;99.90;;;;;;5018459;28;20283;-43
2022/08/31 09:18:51;;;;;;;8.10;4.13;;;19.20;99.90;;;;;;5036522;28;20244;-46
2022/08/31 09:21:27;;;;;;;7.50;3.77;;;19.20;99.90;;;;;;5036463;28;20204;-45
2022/08/31 09:24:14;;;;;;;5.87;3.73;;;19.20;99.90;;;;;;5018425;28;20593;-43
2022/08/31 09:26:46;;;;;;;6.00;3.70;;;19.30;99.90;;;;;;5018356;28;20176;-44
2022/08/31 09:29:29;;;;;;;6.13;3.33;;;19.40;99.90;;;;;;5036322;28;20576;-44
2022/08/31 09:32:01;;;;;;;11.20;3.83;;;19.40;99.90;;;;;;5035908;28;20200;-44
2022/08/31 09:34:32;;;;;;;8.07;4.03;;;19.40;99.90;;;;;;5036065;28;20174;-43
2022/08/31 09:37:44;;;;;;;8.30;4.30;;;19.50;99.90;;;;;;5036296;28;20271;-43
2022/08/31 09:40:19;;;;;;;8.87;4.03;;;19.60;99.90;;;;;;4936297;29;20232;-45
2022/08/31 09:42:58;;;;;;;9.73;4.07;;;19.70;99.90;;;;;;5029238;28;20209;-43
2022/08/31 09:45:34;;;;;;;4.90;3.83;;;19.90;99.90;;;;;;5035806;28;20173;-43
2022/08/31 09:48:02;;;;;;;8.07;4.47;;;20.00;99.90;;;;;;5035633;28;20594;-44
2022/08/31 09:50:36;;;;;;;14.23;4.73;;;20.10;99.90;;;;;;5035765;28;20216;-44
2022/08/31 09:56:14;;;;;;;7.23;4.20;;;20.30;99.90;;;;;;5035977;28;20272;-44
2022/08/31 09:59:01;;;;;;;4.73;3.60;;;20.50;99.90;;;;;;5035802;28;20219;-45
2022/08/31 10:01:41;;;;;;;6.27;3.70;;;20.70;99.90;;;;;;5035448;28;20200;-42
2022/08/31 10:04:35;;;;;;;7.57;4.27;;;21.00;99.90;;;;;;5035752;28;20511;-43
2022/08/31 10:07:23;;;;;;;4.90;4.37;;;21.30;99.90;;;;;;5035335;28;20199;-44
2022/08/31 10:10:03;;;;;;;6.73;4.47;;;21.40;99.90;;;;;;4986971;28;20553;-44
2022/08/31 10:12:47;;;;;;;6.97;4.17;;;21.60;99.90;;;;;;5035710;28;20207;-44
2022/08/31 10:15:20;;;;;;;7.60;4.07;;;21.70;99.90;;;;;;5035175;28;20648;-44
2022/08/31 10:17:55;;;;;;;4.67;4.10;;;22.10;99.90;;;;;;5035440;28;20243;-44
2022/08/31 10:20:29;;;;;;;9.10;4.20;;;22.20;99.90;;;;;;5035496;28;20193;-44
2022/08/31 10:23:04;;;;;;;10.20;3.87;;;22.50;99.90;;;;;;5035034;28;20219;-44
2022/08/31 10:25:51;;;;;;;6.50;4.07;;;22.70;99.90;;;;;;5035055;28;20157;-44
2022/08/31 10:28:31;;;;;;;6.47;4.03;;;22.80;99.90;;;;;;5018612;28;20197;-44
2022/08/31 10:31:01;;;;;;;8.97;4.63;;;22.90;99.90;;;;;;5034947;28;20196;-45
2022/08/31 10:37:06;;;;;;;5.77;4.33;;;22.90;99.90;;;;;;5035102;28;20199;-44
2022/08/31 10:39:41;;;;;;;10.83;5.27;;;23.00;99.90;;;;;;5035055;28;20239;-44
2022/08/31 10:42:14;;;;;;;6.57;4.33;;;23.10;99.90;;;;;;5035029;28;20606;-45
2022/08/31 10:45:00;;;;;;;10.30;5.37;;;23.10;99.90;;;;;;5034909;28;20215;-43
2022/08/31 10:47:29;;;;;;;8.40;4.67;;;23.30;99.90;;;;;;5035059;28;20196;-43
2022/08/31 10:49:58;;;;;;;5.90;4.50;;;23.30;99.90;;;;;;5034583;28;20576;-44
2022/08/31 10:52:41;;;;;;;7.03;5.23;;;23.50;99.90;;;;;;5034635;28;20233;-45
2022/08/31 10:55:13;;;;;;;7.73;4.63;;;23.60;99.90;;;;;;5034900;28;20245;-42
2022/08/31 10:57:56;;;;;;;9.93;4.67;;;23.60;99.90;;;;;;5034835;28;20197;-42
2022/08/31 11:00:44;;;;;;;6.87;5.17;;;23.60;99.90;;;;;;5035629;28;20169;-43
2022/08/31 11:03:21;;;;;;;6.60;5.17;;;23.70;99.90;;;;;;5034706;28;20251;-45
2022/08/31 11:06:08;;;;;;;8.83;4.83;;;23.80;99.90;;;;;;5035278;28;20196;-45
2022/08/31 11:08:48;;;;;;;7.93;4.67;;;23.80;99.90;;;;;;5034642;28;20197;-44
2022/08/31 11:11:41;;;;;;;6.97;5.17;;;24.10;99.90;;;;;;5016697;28;20193;-45
2022/08/31 11:14:16;;;;;;;8.17;4.93;;;24.20;99.90;;;;;;5016506;28;20185;-45
2022/08/31 11:16:50;;;;;;;6.73;5.13;;;24.30;99.90;;;;;;5034111;28;20334;-45
2022/08/31 11:19:30;;;;;;;5.83;4.93;;;24.40;99.90;;;;;;5034085;28;20644;-43
2022/08/31 11:22:09;;;;;;;8.30;5.77;;;24.50;99.90;;;;;;5033904;28;20703;-43
2022/08/31 11:24:54;;;;;;;7.30;5.27;;;24.70;99.90;;;;;;5033937;28;20189;-42
2022/08/31 11:27:37;;;;;;;8.20;5.73;;;24.80;99.90;;;;;;5033765;28;20200;-44
2022/08/31 11:30:22;;;;;;;7.20;5.60;;;25.00;99.90;;;;;;5033992;28;20260;-45
2022/08/31 11:32:59;;;;;;;7.33;5.73;;;25.10;99.90;;;;;;5033836;28;20288;-45
2022/08/31 11:36:05;;;;;;;10.43;6.17;;;25.20;99.90;;;;;;5033885;28;20600;-44
2022/08/31 11:38:40;;;;;;;7.10;5.60;;;25.40;99.90;;;;;;5033727;28;20165;-44
2022/08/31 11:41:10;;;;;;;8.23;5.33;;;25.40;99.90;;;;;;5033576;28;20665;-45
2022/08/31 11:43:35;;;;;;;8.20;5.53;;;25.50;99.90;;;;;;5033986;28;20177;-44
2022/08/31 11:46:24;;;;;;;10.80;5.60;;;25.60;99.90;;;;;;5033821;28;20207;-43
2022/08/31 11:48:53;;;;;;;8.80;4.80;;;25.80;99.90;;;;;;5033507;28;20201;-43
2022/08/31 11:51:41;;;;;;;7.33;5.17;;;25.70;99.90;;;;;;5033483;28;20708;-44
2022/08/31 11:54:40;;;;;;;10.03;5.87;;;25.80;99.90;;;;;;5033863;28;20495;-44
2022/08/31 11:57:14;;;;;;;9.63;6.40;;;25.90;99.90;;;;;;5032709;28;20235;-45
2022/08/31 11:59:59;;;;;;;9.77;6.20;;;26.00;99.90;;;;;;5033680;28;20170;-44
2022/08/31 12:02:25;;;;;;;8.97;6.40;;;26.20;99.90;;;;;;5033166;28;20204;-45
2022/08/31 12:05:01;;;;;;;7.93;5.77;;;26.30;99.90;;;;;;5033627;28;20260;-45
2022/08/31 12:07:33;;;;;;;7.57;6.43;;;26.50;99.90;;;;;;5033327;28;20215;-45
2022/08/31 12:10:07;;;;;;;7.73;6.03;;;26.70;99.90;;;;;;5034103;28;20271;-43
2022/08/31 12:12:44;;;;;;;11.40;5.90;;;26.80;99.90;;;;;;5033603;28;20220;-45
2022/08/31 12:15:46;;;;;;;7.90;5.67;;;26.80;99.90;;;;;;5033161;28;20691;-45
2022/08/31 12:18:38;;;;;;;7.33;5.37;;;27.10;99.90;;;;;;5033208;28;20173;-45
2022/08/31 12:24:25;;;;;;;5.90;4.93;;;27.30;99.90;;;;;;5033480;28;20555;-45
2022/08/31 12:27:08;;;;;;;7.13;5.40;;;27.40;99.90;;;;;;5033331;28;20173;-45
2022/08/31 12:29:37;;;;;;;5.88;4.35;;;27.50;99.90;;;;;;5033149;28;20173;-44
2022/08/31 12:32:27;;;;;;;12.02;5.45;;;27.60;99.90;;;;;;5033007;28;20683;-45
2022/08/31 12:35:08;;;;;;;5.78;4.45;;;27.70;99.90;;;;;;5033400;28;20177;-45
2022/08/31 12:37:36;;;;;;;5.70;4.95;;;27.80;99.90;;;;;;5033410;28;20176;-46
2022/08/31 12:40:06;;;;;;;5.15;4.40;;;27.90;99.90;;;;;;5033376;28;20184;-45
2022/08/31 12:42:40;;;;;;;6.72;4.50;;;27.90;99.90;;;;;;5033313;28;20285;-46
2022/08/31 12:45:06;;;;;;;5.53;4.85;;;28.10;99.90;;;;;;5033064;28;20153;-46
2022/08/31 12:47:45;;;;;;;6.13;4.40;;;28.10;99.90;;;;;;5033164;28;20226;-44
2022/08/31 12:50:22;;;;;;;5.93;4.07;;;28.10;99.90;;;;;;5015258;28;20304;-46
2022/08/31 12:53:06;;;;;;;6.25;4.00;;;28.20;99.90;;;;;;5032801;28;20258;-45
2022/08/31 12:55:50;;;;;;;4.78;4.00;;;28.30;99.90;;;;;;5032922;28;20177;-43
2022/08/31 12:58:41;;;;;;;5.57;3.90;;;28.40;99.90;;;;;;5033688;28;20166;-45
2022/08/31 13:01:11;;;;;;;6.07;3.53;;;28.50;99.90;;;;;;5033098;28;20201;-44
2022/08/31 13:03:45;;;;;;;4.40;3.00;;;28.60;99.90;;;;;;5032853;28;20577;-44
2022/08/31 13:06:22;;;;;;;3.45;3.15;;;28.70;99.90;;;;;;5015155;28;20192;-44
2022/08/31 13:08:53;;;;;;;3.70;3.08;;;28.70;99.90;;;;;;5032740;28;20245;-45
2022/08/31 13:11:25;;;;;;;4.68;3.35;;;28.80;99.90;;;;;;5032752;28;20200;-44
2022/08/31 13:13:52;;;;;;;6.70;3.70;;;28.80;99.90;;;;;;5033907;28;20181;-45
2022/08/31 13:16:18;;;;;;;5.70;3.30;;;28.60;99.90;;;;;;5036050;28;20600;-45
2022/08/31 13:18:48;;;;;;;3.90;3.30;;;28.30;99.90;;;;;;5036286;28;20192;-44
2022/08/31 13:21:20;;;;;;;4.30;3.08;;;28.20;99.90;;;;;;5036765;28;20197;-46
2022/08/31 13:23:47;;;;;;;4.15;3.55;;;28.00;99.90;;;;;;5036221;28;20193;-43
2022/08/31 13:26:23;;;;;;;5.47;3.60;;;27.80;99.90;;;;;;5036410;28;20185;-46